createdAt,value
2019-06-26T00:00:57.643Z,22.76
2019-06-26T00:03:26.260Z,22.77
2019-06-26T00:05:54.830Z,22.73
2019-06-26T00:08:23.453Z,22.70
2019-06-26T00:10:52.031Z,22.68
2019-06-26T00:13:26.331Z,22.74
2019-06-26T00:15:50.921Z,22.68
2019-06-26T00:18:19.558Z,22.62
2019-06-26T00:20:48.116Z,22.45
2019-06-26T00:23:16.741Z,22.65
2019-06-26T00:25:45.329Z,22.72
2019-06-26T00:28:13.946Z,22.57
2019-06-26T00:30:43.089Z,22.57
2019-06-26T00:33:11.723Z,22.60
2019-06-26T00:35:40.257Z,22.67
2019-06-26T00:38:08.899Z,22.21
2019-06-26T00:40:37.546Z,22.54
2019-06-26T00:43:06.180Z,22.64
2019-06-26T00:45:34.803Z,22.52
2019-06-26T00:48:03.528Z,22.49
2019-06-26T00:50:32.201Z,22.26
2019-06-26T00:53:00.929Z,22.32
2019-06-26T00:55:29.491Z,22.44
2019-06-26T00:57:58.096Z,22.33
2019-06-26T01:00:32.774Z,22.30
2019-06-26T01:03:01.446Z,22.41
2019-06-26T01:05:29.996Z,22.51
2019-06-26T01:07:58.602Z,22.21
2019-06-26T01:10:27.309Z,22.11
2019-06-26T01:12:55.953Z,22.22
2019-06-26T01:15:24.554Z,22.16
2019-06-26T01:17:53.236Z,22.40
2019-06-26T01:20:21.795Z,22.13
2019-06-26T01:22:50.457Z,22.25
2019-06-26T01:25:19.097Z,22.25
2019-06-26T01:27:47.693Z,22.22
2019-06-26T01:30:16.324Z,22.07
2019-06-26T01:32:45.089Z,22.19
2019-06-26T01:35:13.787Z,22.11
2019-06-26T01:37:42.512Z,21.82
2019-06-26T01:40:11.224Z,21.87
2019-06-26T01:42:39.922Z,21.73
2019-06-26T01:45:09.124Z,21.87
2019-06-26T01:47:37.852Z,21.93
2019-06-26T01:50:09.488Z,21.94
2019-06-26T01:52:38.082Z,21.93
2019-06-26T01:55:07.079Z,22.00
2019-06-26T01:57:35.689Z,21.87
2019-06-26T02:00:06.867Z,21.95
2019-06-26T02:02:35.558Z,21.88
2019-06-26T02:05:06.528Z,21.86
2019-06-26T02:07:35.132Z,22.01
2019-06-26T02:10:05.130Z,21.63
2019-06-26T02:12:33.767Z,21.76
2019-06-26T02:15:02.339Z,21.76
2019-06-26T02:17:31.279Z,21.50
2019-06-26T02:19:59.829Z,21.59
2019-06-26T02:22:28.466Z,21.77
2019-06-26T02:24:57.100Z,21.68
2019-06-26T02:27:25.756Z,21.73
2019-06-26T02:29:54.328Z,21.75
2019-06-26T02:32:22.939Z,21.70
2019-06-26T02:34:51.489Z,21.83
2019-06-26T02:37:20.190Z,21.82
2019-06-26T02:39:48.755Z,21.74
2019-06-26T02:42:17.379Z,21.61
2019-06-26T02:44:53.051Z,21.43
2019-06-26T02:47:20.148Z,21.53
2019-06-26T02:49:46.535Z,21.52
2019-06-26T02:52:15.226Z,21.66
2019-06-26T02:54:43.786Z,21.68
2019-06-26T02:57:12.392Z,21.57
2019-06-26T02:59:40.980Z,21.58
2019-06-26T03:02:09.632Z,21.34
2019-06-26T03:04:38.211Z,21.31
2019-06-26T03:07:06.842Z,21.44
2019-06-26T03:09:35.410Z,21.42
2019-06-26T03:12:04.092Z,21.64
2019-06-26T03:14:32.679Z,21.28
2019-06-26T03:17:01.289Z,21.27
2019-06-26T03:19:29.918Z,21.05
2019-06-26T03:21:58.527Z,21.20
2019-06-26T03:24:27.180Z,21.38
2019-06-26T03:26:55.847Z,21.58
2019-06-26T03:29:24.436Z,21.45
2019-06-26T03:31:53.078Z,21.45
2019-06-26T03:34:21.661Z,21.42
2019-06-26T03:36:50.260Z,21.47
2019-06-26T03:39:18.854Z,21.50
2019-06-26T03:41:47.462Z,21.48
2019-06-26T03:44:16.074Z,21.65
2019-06-26T03:46:44.696Z,21.06
2019-06-26T03:49:13.331Z,21.33
2019-06-26T03:51:41.988Z,21.60
2019-06-26T03:54:12.333Z,21.66
2019-06-26T03:56:45.788Z,21.48
2019-06-26T03:59:14.396Z,21.61
2019-06-26T04:01:42.967Z,21.58
2019-06-26T04:14:06.346Z,21.62
2019-06-26T04:16:34.941Z,21.85
2019-06-26T04:24:00.955Z,22.37
2019-06-26T04:26:29.577Z,22.37
2019-06-26T04:28:58.224Z,22.51
2019-06-26T04:31:26.808Z,22.32
2019-06-26T04:41:21.628Z,22.62
2019-06-26T04:48:47.688Z,22.71
2019-06-26T04:51:16.272Z,22.56
2019-06-26T05:01:10.994Z,22.92
2019-06-26T05:03:39.608Z,22.88
2019-06-26T05:06:08.252Z,22.69
2019-06-26T05:08:36.870Z,23.10
2019-06-26T05:11:05.526Z,23.10
2019-06-26T05:13:34.167Z,23.26
2019-06-26T05:16:14.279Z,23.34
2019-06-26T05:18:33.147Z,23.42
2019-06-26T05:21:01.736Z,23.36
2019-06-26T05:23:30.638Z,23.48
2019-06-26T05:25:59.225Z,23.64
2019-06-26T05:28:27.851Z,23.72
2019-06-26T05:30:56.497Z,23.96
2019-06-26T05:33:25.092Z,24.03
2019-06-26T05:35:53.679Z,24.26
2019-06-26T05:38:22.293Z,24.14
2019-06-26T05:40:50.877Z,24.30
2019-06-26T05:43:19.517Z,24.08
2019-06-26T05:45:48.111Z,24.26
2019-06-26T05:48:16.822Z,24.35
2019-06-26T05:50:45.460Z,24.43
2019-06-26T05:53:14.103Z,24.51
2019-06-26T05:55:42.744Z,24.65
2019-06-26T05:58:11.358Z,24.62
2019-06-26T06:00:39.961Z,24.77
2019-06-26T06:03:08.592Z,24.75
2019-06-26T06:05:37.250Z,24.86
2019-06-26T06:08:05.863Z,24.92
2019-06-26T06:10:34.480Z,25.10
2019-06-26T06:13:03.134Z,25.24
2019-06-26T06:15:31.787Z,25.55
2019-06-26T06:18:00.439Z,25.64
2019-06-26T06:20:39.579Z,25.62
2019-06-26T06:23:08.188Z,25.99
2019-06-26T06:25:36.761Z,26.21
2019-06-26T06:28:05.428Z,26.54
2019-06-26T06:30:34.072Z,26.80
2019-06-26T06:33:02.810Z,26.98
2019-06-26T06:35:31.384Z,27.09
2019-06-26T06:38:00.049Z,26.76
2019-06-26T06:40:28.596Z,27.94
2019-06-26T06:42:57.215Z,27.68
2019-06-26T06:45:26.171Z,28.44
2019-06-26T06:47:54.812Z,28.39
2019-06-26T06:50:23.556Z,28.40
2019-06-26T06:52:52.182Z,28.68
2019-06-26T06:55:20.935Z,28.58
2019-06-26T06:57:49.542Z,28.49
2019-06-26T07:00:18.610Z,28.84
2019-06-26T07:02:47.227Z,29.23
2019-06-26T07:05:15.908Z,28.90
2019-06-26T07:07:44.646Z,28.72
2019-06-26T07:10:14.174Z,29.10
2019-06-26T07:12:43.947Z,29.39
2019-06-26T07:15:13.051Z,30.03
2019-06-26T07:17:41.710Z,29.58
2019-06-26T07:20:10.890Z,29.80
2019-06-26T07:22:39.552Z,29.78
2019-06-26T07:25:08.658Z,29.66
2019-06-26T07:27:37.331Z,29.87
2019-06-26T07:30:06.843Z,30.23
2019-06-26T07:32:35.545Z,29.81
2019-06-26T07:35:05.963Z,29.95
2019-06-26T07:37:34.602Z,29.96
2019-06-26T07:40:04.306Z,29.98
2019-06-26T07:42:32.908Z,29.96
2019-06-26T07:45:01.486Z,30.06
2019-06-26T07:47:42.543Z,30.10
2019-06-26T07:50:00.347Z,30.02
2019-06-26T07:52:28.971Z,30.38
2019-06-26T07:54:57.555Z,30.30
2019-06-26T07:57:26.215Z,30.08
2019-06-26T07:59:54.886Z,30.56
2019-06-26T08:02:23.490Z,30.40
2019-06-26T08:04:52.046Z,30.17
2019-06-26T08:07:20.642Z,30.36
2019-06-26T08:09:49.210Z,30.48
2019-06-26T08:12:17.864Z,30.66
2019-06-26T08:14:46.416Z,30.45
2019-06-26T08:17:15.028Z,30.59
2019-06-26T08:19:46.080Z,30.76
2019-06-26T08:22:14.859Z,30.78
2019-06-26T08:24:43.501Z,30.96
2019-06-26T08:27:13.256Z,30.89
2019-06-26T08:29:41.894Z,30.94
2019-06-26T08:32:10.499Z,31.06
2019-06-26T08:34:39.234Z,30.86
2019-06-26T08:37:08.119Z,31.16
2019-06-26T08:39:36.749Z,31.43
2019-06-26T08:42:05.529Z,31.66
2019-06-26T08:44:34.104Z,31.32
2019-06-26T08:47:02.725Z,31.24
2019-06-26T08:49:31.346Z,31.44
2019-06-26T08:52:00.053Z,31.49
2019-06-26T08:54:28.609Z,31.58
2019-06-26T08:56:57.286Z,31.48
2019-06-26T08:59:25.861Z,31.60
2019-06-26T09:01:54.681Z,31.70
2019-06-26T09:04:23.277Z,32.28
2019-06-26T09:06:51.873Z,31.93
2019-06-26T09:09:20.428Z,32.04
2019-06-26T09:11:49.061Z,32.15
2019-06-26T09:14:17.650Z,32.30
2019-06-26T09:16:46.227Z,32.37
2019-06-26T09:19:14.789Z,32.46
2019-06-26T09:21:43.405Z,32.44
2019-06-26T09:24:11.991Z,32.65
2019-06-26T09:26:40.652Z,32.52
2019-06-26T09:29:09.277Z,32.83
2019-06-26T09:31:38.024Z,32.71
2019-06-26T09:34:06.594Z,32.73
2019-06-26T09:36:35.296Z,32.78
2019-06-26T09:39:05.697Z,32.89
2019-06-26T09:41:34.380Z,33.14
2019-06-26T09:44:03.009Z,33.07
2019-06-26T09:46:31.717Z,33.17
2019-06-26T09:49:00.301Z,33.41
2019-06-26T09:51:28.893Z,33.24
2019-06-26T09:53:57.456Z,33.24
2019-06-26T09:56:26.062Z,33.37
2019-06-26T09:58:54.638Z,33.50
2019-06-26T10:01:23.335Z,33.79
2019-06-26T10:03:51.903Z,33.69
2019-06-26T10:06:20.493Z,33.73
2019-06-26T10:08:49.138Z,33.89
2019-06-26T10:11:17.876Z,34.01
2019-06-26T10:13:46.502Z,34.08
2019-06-26T10:16:15.167Z,34.38
2019-06-26T10:18:43.718Z,34.28
2019-06-26T10:21:12.386Z,34.31
2019-06-26T10:23:40.997Z,34.60
2019-06-26T10:26:09.809Z,34.77
2019-06-26T10:28:38.951Z,34.44
2019-06-26T10:31:07.624Z,34.42
2019-06-26T10:33:36.178Z,34.56
2019-06-26T10:36:04.845Z,34.58
2019-06-26T10:38:33.795Z,34.31
2019-06-26T10:41:02.484Z,34.74
2019-06-26T10:43:31.136Z,34.09
2019-06-26T10:45:59.725Z,34.63
2019-06-26T10:48:28.286Z,34.48
2019-06-26T10:50:58.775Z,34.72
2019-06-26T10:53:28.020Z,35.11
2019-06-26T10:55:56.615Z,35.20
2019-06-26T10:58:25.199Z,34.96
2019-06-26T11:10:50.020Z,35.06
2019-06-26T11:13:19.000Z,35.16
2019-06-26T11:25:44.796Z,34.59
2019-06-26T11:28:13.852Z,34.57
2019-06-26T11:30:42.919Z,35.10
2019-06-26T11:33:11.974Z,35.22
2019-06-26T11:35:41.077Z,35.15
2019-06-26T11:40:39.394Z,34.78
2019-06-26T11:55:34.321Z,35.19
2019-06-26T11:58:03.486Z,35.51
2019-06-26T12:00:32.669Z,35.08
2019-06-26T12:03:01.768Z,35.41
2019-06-26T12:05:30.892Z,35.42
2019-06-26T12:08:00.029Z,35.40
2019-06-26T12:10:32.826Z,35.19
2019-06-26T12:13:04.162Z,35.45
2019-06-26T12:15:32.794Z,35.62
2019-06-26T12:18:02.006Z,35.42
2019-06-26T12:20:31.173Z,35.24
2019-06-26T12:23:00.311Z,35.23
2019-06-26T12:25:29.596Z,34.98
2019-06-26T12:28:00.193Z,34.86
2019-06-26T12:30:30.933Z,35.18
2019-06-26T12:33:03.478Z,35.11
2019-06-26T12:35:31.007Z,35.51
2019-06-26T12:38:00.165Z,35.11
2019-06-26T12:40:31.483Z,35.53
2019-06-26T12:43:07.559Z,35.22
2019-06-26T12:45:37.640Z,34.99
2019-06-26T12:48:06.879Z,34.96
2019-06-26T12:50:36.308Z,35.21
2019-06-26T12:53:07.979Z,34.80
2019-06-26T12:55:38.260Z,35.05
2019-06-26T12:58:14.029Z,35.13
2019-06-26T13:00:38.515Z,35.02
2019-06-26T13:03:07.664Z,35.12
2019-06-26T13:05:36.863Z,35.30
2019-06-26T13:08:06.393Z,35.09
2019-06-26T13:10:49.025Z,34.97
2019-06-26T13:13:09.542Z,34.88
2019-06-26T13:15:38.677Z,34.94
2019-06-26T13:18:07.895Z,35.28
2019-06-26T13:20:51.692Z,35.10
2019-06-26T13:23:08.368Z,35.14
2019-06-26T13:25:37.526Z,35.39
2019-06-26T13:28:06.721Z,35.25
2019-06-26T13:30:43.301Z,35.22
2019-06-26T13:33:12.326Z,35.41
2019-06-26T13:35:41.466Z,34.98
2019-06-26T13:38:10.645Z,34.96
2019-06-26T13:40:42.192Z,35.23
2019-06-26T13:43:11.396Z,35.10
2019-06-26T13:45:42.227Z,35.17
2019-06-26T13:48:12.852Z,35.32
2019-06-26T13:50:41.995Z,34.97
2019-06-26T13:53:11.192Z,35.12
2019-06-26T13:55:41.143Z,35.60
2019-06-26T13:58:10.348Z,35.37
2019-06-26T14:00:43.983Z,35.43
2019-06-26T14:03:14.440Z,35.24
2019-06-26T14:05:45.248Z,35.11
2019-06-26T14:08:14.458Z,35.03
2019-06-26T14:10:46.104Z,35.24
2019-06-26T14:13:15.291Z,35.39
2019-06-26T14:15:44.473Z,35.34
2019-06-26T14:18:15.167Z,35.47
2019-06-26T14:20:46.747Z,35.42
2019-06-26T14:23:19.998Z,35.22
2019-06-26T14:25:49.666Z,35.18
2019-06-26T14:28:23.159Z,35.21
2019-06-26T14:30:53.585Z,34.73
2019-06-26T14:33:22.735Z,34.99
2019-06-26T14:35:51.973Z,35.11
2019-06-26T14:38:23.493Z,35.21
2019-06-26T14:40:55.020Z,35.31
2019-06-26T14:43:24.161Z,35.21
2019-06-26T14:45:53.424Z,35.40
2019-06-26T14:48:22.568Z,35.05
2019-06-26T14:50:52.631Z,35.48
2019-06-26T14:53:26.211Z,35.34
2019-06-26T14:55:55.493Z,35.34
2019-06-26T14:58:27.094Z,35.46
2019-06-26T15:00:56.277Z,35.62
2019-06-26T15:03:25.438Z,35.31
2019-06-26T15:05:54.777Z,34.89
2019-06-26T15:08:25.512Z,35.07
2019-06-26T15:10:54.719Z,35.16
2019-06-26T15:13:23.870Z,34.63
2019-06-26T15:15:54.954Z,34.45
2019-06-26T15:18:25.792Z,34.32
2019-06-26T15:20:55.030Z,34.37
2019-06-26T15:23:24.196Z,34.69
2019-06-26T15:25:56.183Z,35.08
2019-06-26T15:28:25.362Z,34.93
2019-06-26T15:30:54.918Z,34.71
2019-06-26T15:33:24.478Z,34.83
2019-06-26T15:35:56.240Z,34.71
2019-06-26T15:38:29.522Z,34.45
2019-06-26T15:41:02.199Z,34.57
2019-06-26T15:43:31.485Z,34.48
2019-06-26T15:46:01.166Z,34.50
2019-06-26T15:48:30.913Z,34.44
2019-06-26T15:51:00.111Z,34.43
2019-06-26T15:53:29.357Z,34.20
2019-06-26T15:55:59.243Z,33.95
2019-06-26T15:58:30.066Z,34.01
2019-06-26T16:00:59.231Z,34.09
2019-06-26T16:03:30.794Z,33.84
2019-06-26T16:05:59.962Z,33.70
2019-06-26T16:08:31.871Z,33.87
2019-06-26T16:11:02.187Z,33.79
2019-06-26T16:13:33.937Z,33.73
2019-06-26T16:16:08.421Z,33.80
2019-06-26T16:18:45.456Z,33.69
2019-06-26T16:21:14.700Z,33.72
2019-06-26T16:23:43.749Z,33.71
2019-06-26T16:26:12.972Z,33.65
2019-06-26T16:28:42.128Z,33.62
2019-06-26T16:31:11.419Z,33.60
2019-06-26T16:33:40.637Z,33.42
2019-06-26T16:36:09.895Z,33.32
2019-06-26T16:38:39.658Z,33.25
2019-06-26T16:41:09.263Z,33.26
2019-06-26T16:43:38.437Z,33.24
2019-06-26T16:46:08.892Z,33.10
2019-06-26T16:48:38.075Z,32.97
2019-06-26T16:51:07.501Z,32.96
2019-06-26T16:53:38.339Z,32.95
2019-06-26T16:56:18.604Z,32.87
2019-06-26T16:58:49.132Z,32.85
2019-06-26T17:01:18.924Z,32.70
2019-06-26T17:03:49.174Z,32.69
2019-06-26T17:06:18.404Z,32.59
2019-06-26T17:08:47.742Z,32.57
2019-06-26T17:11:18.168Z,32.48
2019-06-26T17:13:47.359Z,32.49
2019-06-26T17:16:18.120Z,32.38
2019-06-26T17:18:47.220Z,32.35
2019-06-26T17:21:16.803Z,32.33
2019-06-26T17:23:45.943Z,32.24
2019-06-26T17:26:15.021Z,32.14
2019-06-26T17:28:45.051Z,31.99
2019-06-26T17:31:14.728Z,31.95
2019-06-26T17:33:44.025Z,31.92
2019-06-26T17:36:14.677Z,31.82
2019-06-26T17:38:46.826Z,31.78
2019-06-26T17:41:16.434Z,31.66
2019-06-26T17:43:47.104Z,31.65
2019-06-26T17:46:16.789Z,31.63
2019-06-26T17:48:46.389Z,31.56
2019-06-26T17:51:17.535Z,31.47
2019-06-26T17:53:46.857Z,31.48
2019-06-26T17:56:16.091Z,31.38
2019-06-26T17:58:45.302Z,31.29
2019-06-26T18:01:14.513Z,31.20
2019-06-26T18:03:45.874Z,31.13
2019-06-26T18:06:18.829Z,31.07
2019-06-26T18:08:49.757Z,30.97
2019-06-26T18:11:18.954Z,30.89
2019-06-26T18:13:53.407Z,30.77
2019-06-26T18:16:24.186Z,30.67
2019-06-26T18:18:59.071Z,30.58
2019-06-26T18:21:29.018Z,30.49
2019-06-26T18:23:59.802Z,30.45
2019-06-26T18:26:31.375Z,30.29
2019-06-26T18:29:03.267Z,30.25
2019-06-26T18:31:34.143Z,30.19
2019-06-26T18:34:03.460Z,30.10
2019-06-26T18:36:34.000Z,30.07
2019-06-26T18:39:07.660Z,29.95
2019-06-26T18:41:40.911Z,29.97
2019-06-26T18:44:14.222Z,29.94
2019-06-26T18:46:45.022Z,29.73
2019-06-26T18:49:15.805Z,29.66
2019-06-26T18:51:49.088Z,29.59
2019-06-26T18:54:23.023Z,29.57
2019-06-26T18:56:54.607Z,29.35
2019-06-26T18:59:24.036Z,29.44
2019-06-26T19:01:53.268Z,29.30
2019-06-26T19:04:22.653Z,29.19
2019-06-26T19:06:52.274Z,29.08
2019-06-26T19:09:21.569Z,29.04
2019-06-26T19:11:52.276Z,28.95
2019-06-26T19:14:22.929Z,28.90
2019-06-26T19:16:53.442Z,28.82
2019-06-26T19:19:22.802Z,28.73
2019-06-26T19:21:52.294Z,28.76
2019-06-26T19:24:22.060Z,28.55
2019-06-26T19:26:51.270Z,28.63
2019-06-26T19:29:21.599Z,28.51
2019-06-26T19:31:50.928Z,28.34
2019-06-26T19:34:22.948Z,28.20
2019-06-26T19:36:56.148Z,28.08
2019-06-26T19:39:30.728Z,28.08
2019-06-26T19:42:04.238Z,28.01
2019-06-26T19:44:36.825Z,27.87
2019-06-26T19:47:08.669Z,27.93
2019-06-26T19:49:45.024Z,27.73
2019-06-26T19:52:17.874Z,27.73
2019-06-26T19:54:47.208Z,27.71
2019-06-26T19:57:17.467Z,27.65
2019-06-26T19:59:47.485Z,27.50
2019-06-26T20:02:18.226Z,27.38
2019-06-26T20:04:51.678Z,27.31
2019-06-26T20:07:26.551Z,27.28
2019-06-26T20:10:01.732Z,27.25
2019-06-26T20:12:34.073Z,27.19
2019-06-26T20:15:06.401Z,27.10
2019-06-26T20:17:37.273Z,27.08
2019-06-26T20:20:11.171Z,27.01
2019-06-26T20:22:43.464Z,27.10
2019-06-26T20:25:14.062Z,26.93
2019-06-26T20:27:45.727Z,26.88
2019-06-26T20:30:16.987Z,26.91
2019-06-26T20:32:46.283Z,26.85
2019-06-26T20:35:15.994Z,26.59
2019-06-26T20:37:45.852Z,26.45
2019-06-26T20:40:16.505Z,26.54
2019-06-26T20:42:46.728Z,26.38
2019-06-26T20:45:16.021Z,26.35
2019-06-26T20:47:46.546Z,26.10
2019-06-26T20:50:15.742Z,26.13
2019-06-26T20:52:44.914Z,26.09
2019-06-26T20:55:14.262Z,26.04
2019-06-26T20:57:43.460Z,26.04
2019-06-26T21:00:14.662Z,25.74
2019-06-26T21:02:43.842Z,25.74
2019-06-26T21:05:13.119Z,25.64
2019-06-26T21:07:42.290Z,25.46
2019-06-26T21:10:11.914Z,25.49
2019-06-26T21:12:41.026Z,25.43
2019-06-26T21:15:10.878Z,25.40
2019-06-26T21:17:40.025Z,25.36
2019-06-26T21:20:10.348Z,25.12
2019-06-26T21:22:40.565Z,25.25
2019-06-26T21:25:18.412Z,25.03
2019-06-26T21:27:40.374Z,25.21
2019-06-26T21:30:10.123Z,25.18
2019-06-26T21:32:38.902Z,24.84
2019-06-26T21:35:08.381Z,25.17
2019-06-26T21:37:37.028Z,24.63
2019-06-26T21:40:05.946Z,24.81
2019-06-26T21:42:34.591Z,24.73
2019-06-26T21:45:03.266Z,24.75
2019-06-26T21:47:31.925Z,24.61
2019-06-26T21:50:00.523Z,24.53
2019-06-26T21:52:29.144Z,24.39
2019-06-26T21:54:57.718Z,24.62
2019-06-26T21:57:26.393Z,24.14
2019-06-26T21:59:55.001Z,24.32
2019-06-26T22:02:23.574Z,24.05
2019-06-26T22:04:52.154Z,24.04
2019-06-26T22:07:20.925Z,24.05
2019-06-26T22:09:49.617Z,24.04
2019-06-26T22:12:18.296Z,23.99
2019-06-26T22:14:46.860Z,23.88
2019-06-26T22:17:15.463Z,23.78
2019-06-26T22:19:44.094Z,23.72
2019-06-26T22:22:12.720Z,23.68
2019-06-26T22:24:41.325Z,23.72
2019-06-26T22:27:13.136Z,23.53
2019-06-26T22:29:41.767Z,23.75
2019-06-26T22:32:10.305Z,23.53
2019-06-26T22:34:38.931Z,23.21
2019-06-26T22:37:07.615Z,23.51
2019-06-26T22:39:36.255Z,23.66
2019-06-26T22:42:04.868Z,23.23
2019-06-26T22:44:33.465Z,23.24
2019-06-26T22:47:02.085Z,23.35
2019-06-26T22:49:30.686Z,23.49
2019-06-26T22:51:59.240Z,22.96
2019-06-26T22:54:33.073Z,22.91
2019-06-26T22:57:01.688Z,22.89
2019-06-26T22:59:30.282Z,22.86
2019-06-26T23:01:58.923Z,22.61
2019-06-26T23:04:27.591Z,22.69
2019-06-26T23:06:56.183Z,22.55
2019-06-26T23:09:24.803Z,22.42
2019-06-26T23:11:53.383Z,22.23
2019-06-26T23:14:21.993Z,22.65
2019-06-26T23:16:50.556Z,22.18
2019-06-26T23:19:19.211Z,22.31
2019-06-26T23:21:47.768Z,22.00
2019-06-26T23:24:16.368Z,22.02
2019-06-26T23:26:44.927Z,21.83
2019-06-26T23:29:13.537Z,21.84
2019-06-26T23:31:42.098Z,21.89
2019-06-26T23:34:10.723Z,21.76
2019-06-26T23:36:39.276Z,21.82
2019-06-26T23:39:07.947Z,21.42
2019-06-26T23:41:36.633Z,21.45
2019-06-26T23:44:05.243Z,21.44
2019-06-26T23:46:33.848Z,21.44
2019-06-26T23:49:02.503Z,21.19
2019-06-26T23:51:31.155Z,20.82
2019-06-26T23:54:00.115Z,21.46
2019-06-26T23:56:40.132Z,20.87
2019-06-26T23:58:58.980Z,20.84
